sensor_id;sensor_type;location;lat;lon;timestamp;temperature;humidity
13585;DHT22;6863;48.402;9.994;2022-10-17T00:00:27;10.80;99.90
13585;DHT22;6863;48.402;9.994;2022-10-17T00:02:56;10.90;99.90
13585;DHT22;6863;48.402;9.994;2022-10-17T00:05:22;10.90;99.90
13585;DHT22;6863;48.402;9.994;2022-10-17T00:07:49;10.80;99.90
13585;DHT22;6863;48.402;9.994;2022-10-17T00:10:15;10.80;99.90
13585;DHT22;6863;48.402;9.994;2022-10-17T00:12:41;10.70;99.90
13585;DHT22;6863;48.402;9.994;2022-10-17T00:15:07;10.70;99.90
13585;DHT22;6863;48.402;9.994;2022-10-17T00:17:33;10.60;99.90
13585;DHT22;6863;48.402;9.994;2022-10-17T00:19:59;10.50;99.90
13585;DHT22;6863;48.402;9.994;2022-10-17T00:22:26;10.50;99.90
13585;DHT22;6863;48.402;9.994;2022-10-17T00:24:51;10.40;99.90
13585;DHT22;6863;48.402;9.994;2022-10-17T00:27:17;10.30;99.90
13585;DHT22;6863;48.402;9.994;2022-10-17T00:29:47;10.40;99.90
13585;DHT22;6863;48.402;9.994;2022-10-17T00:32:13;10.40;99.90
13585;DHT22;6863;48.402;9.994;2022-10-17T00:34:38;10.40;99.90
13585;DHT22;6863;48.402;9.994;2022-10-17T00:37:04;10.40;99.90
13585;DHT22;6863;48.402;9.994;2022-10-17T00:39:29;10.30;99.90
13585;DHT22;6863;48.402;9.994;2022-10-17T00:41:55;10.20;99.90
13585;DHT22;6863;48.402;9.994;2022-10-17T00:47:02;10.20;99.90
13585;DHT22;6863;48.402;9.994;2022-10-17T00:49:31;10.20;99.90
13585;DHT22;6863;48.402;9.994;2022-10-17T00:52:05;10.10;99.90
13585;DHT22;6863;48.402;9.994;2022-10-17T00:54:34;10.10;99.90
13585;DHT22;6863;48.402;9.994;2022-10-17T00:57:01;10.10;99.90
13585;DHT22;6863;48.402;9.994;2022-10-17T00:59:27;10.00;99.90
13585;DHT22;6863;48.402;9.994;2022-10-17T01:02:11;10.00;99.90
13585;DHT22;6863;48.402;9.994;2022-10-17T01:04:40;9.90;99.90
13585;DHT22;6863;48.402;9.994;2022-10-17T01:07:06;9.90;99.90
13585;DHT22;6863;48.402;9.994;2022-10-17T01:09:32;9.90;99.90
13585;DHT22;6863;48.402;9.994;2022-10-17T01:18:12;9.80;99.90
13585;DHT22;6863;48.402;9.994;2022-10-17T01:21:19;9.80;99.90
13585;DHT22;6863;48.402;9.994;2022-10-17T01:24:05;9.90;99.90
13585;DHT22;6863;48.402;9.994;2022-10-17T01:29:30;9.90;99.90
13585;DHT22;6863;48.402;9.994;2022-10-17T01:34:38;9.80;99.90
13585;DHT22;6863;48.402;9.994;2022-10-17T01:37:29;9.70;99.90
13585;DHT22;6863;48.402;9.994;2022-10-17T01:40:08;9.60;99.90
13585;DHT22;6863;48.402;9.994;2022-10-17T01:42:47;9.60;99.90
13585;DHT22;6863;48.402;9.994;2022-10-17T01:45:20;9.50;99.90
13585;DHT22;6863;48.402;9.994;2022-10-17T01:47:49;9.50;99.90
13585;DHT22;6863;48.402;9.994;2022-10-17T01:50:20;9.50;99.90
13585;DHT22;6863;48.402;9.994;2022-10-17T01:52:53;9.50;99.90
13585;DHT22;6863;48.402;9.994;2022-10-17T01:55:25;9.40;99.90
13585;DHT22;6863;48.402;9.994;2022-10-17T01:57:56;9.40;99.90
13585;DHT22;6863;48.402;9.994;2022-10-17T02:00:26;9.40;99.90
13585;DHT22;6863;48.402;9.994;2022-10-17T02:02:55;9.40;99.90
13585;DHT22;6863;48.402;9.994;2022-10-17T02:05:27;9.40;99.90
13585;DHT22;6863;48.402;9.994;2022-10-17T02:07:55;9.30;99.90
13585;DHT22;6863;48.402;9.994;2022-10-17T02:10:33;9.30;99.90
13585;DHT22;6863;48.402;9.994;2022-10-17T02:13:12;9.30;99.90
13585;DHT22;6863;48.402;9.994;2022-10-17T02:24:19;9.20;99.90
13585;DHT22;6863;48.402;9.994;2022-10-17T02:26:52;9.10;99.90
13585;DHT22;6863;48.402;9.994;2022-10-17T02:29:29;9.10;99.90
13585;DHT22;6863;48.402;9.994;2022-10-17T02:32:05;9.00;99.90
13585;DHT22;6863;48.402;9.994;2022-10-17T02:34:37;9.00;99.90
13585;DHT22;6863;48.402;9.994;2022-10-17T02:37:07;9.00;99.90
13585;DHT22;6863;48.402;9.994;2022-10-17T02:39:34;9.00;99.90
13585;DHT22;6863;48.402;9.994;2022-10-17T02:42:03;9.00;99.90
13585;DHT22;6863;48.402;9.994;2022-10-17T02:44:30;9.00;99.90
13585;DHT22;6863;48.402;9.994;2022-10-17T02:47:11;9.00;99.90
13585;DHT22;6863;48.402;9.994;2022-10-17T02:49:40;9.10;99.90
13585;DHT22;6863;48.402;9.994;2022-10-17T02:52:21;9.10;99.90
13585;DHT22;6863;48.402;9.994;2022-10-17T02:54:59;9.20;99.90
13585;DHT22;6863;48.402;9.994;2022-10-17T02:57:38;9.10;99.90
13585;DHT22;6863;48.402;9.994;2022-10-17T03:00:08;9.10;99.90
13585;DHT22;6863;48.402;9.994;2022-10-17T03:02:43;9.10;99.90
13585;DHT22;6863;48.402;9.994;2022-10-17T03:05:10;9.10;99.90
13585;DHT22;6863;48.402;9.994;2022-10-17T03:07:36;9.10;99.90
13585;DHT22;6863;48.402;9.994;2022-10-17T03:10:02;9.20;99.90
13585;DHT22;6863;48.402;9.994;2022-10-17T03:12:28;9.20;99.90
13585;DHT22;6863;48.402;9.994;2022-10-17T03:14:54;9.10;99.90
13585;DHT22;6863;48.402;9.994;2022-10-17T03:17:19;9.10;99.90
13585;DHT22;6863;48.402;9.994;2022-10-17T03:19:45;9.00;99.90
13585;DHT22;6863;48.402;9.994;2022-10-17T03:22:11;9.00;99.90
13585;DHT22;6863;48.402;9.994;2022-10-17T03:24:36;9.00;99.90
13585;DHT22;6863;48.402;9.994;2022-10-17T03:27:02;9.00;99.90
13585;DHT22;6863;48.402;9.994;2022-10-17T03:29:27;8.80;99.90
13585;DHT22;6863;48.402;9.994;2022-10-17T03:31:53;8.80;99.90
13585;DHT22;6863;48.402;9.994;2022-10-17T03:34:19;8.70;99.90
13585;DHT22;6863;48.402;9.994;2022-10-17T03:36:45;8.80;99.90
13585;DHT22;6863;48.402;9.994;2022-10-17T03:39:10;8.70;99.90
13585;DHT22;6863;48.402;9.994;2022-10-17T03:41:36;8.70;99.90
13585;DHT22;6863;48.402;9.994;2022-10-17T03:44:02;8.50;99.90
13585;DHT22;6863;48.402;9.994;2022-10-17T03:46:27;8.50;99.90
13585;DHT22;6863;48.402;9.994;2022-10-17T03:48:53;8.50;99.90
13585;DHT22;6863;48.402;9.994;2022-10-17T03:51:18;8.50;99.90
13585;DHT22;6863;48.402;9.994;2022-10-17T03:53:44;8.50;99.90
13585;DHT22;6863;48.402;9.994;2022-10-17T03:56:14;8.40;99.90
13585;DHT22;6863;48.402;9.994;2022-10-17T03:58:41;8.40;99.90
13585;DHT22;6863;48.402;9.994;2022-10-17T04:01:08;8.40;99.90
13585;DHT22;6863;48.402;9.994;2022-10-17T04:03:35;8.40;99.90
13585;DHT22;6863;48.402;9.994;2022-10-17T04:06:02;8.40;99.90
13585;DHT22;6863;48.402;9.994;2022-10-17T04:08:29;8.40;99.90
13585;DHT22;6863;48.402;9.994;2022-10-17T04:10:59;8.50;99.90
13585;DHT22;6863;48.402;9.994;2022-10-17T04:13:24;8.50;99.90
13585;DHT22;6863;48.402;9.994;2022-10-17T04:16:01;8.60;99.90
13585;DHT22;6863;48.402;9.994;2022-10-17T04:18:28;8.80;99.90
13585;DHT22;6863;48.402;9.994;2022-10-17T04:20:53;8.80;99.90
13585;DHT22;6863;48.402;9.994;2022-10-17T04:23:19;8.80;99.90
13585;DHT22;6863;48.402;9.994;2022-10-17T04:25:45;8.80;99.90
13585;DHT22;6863;48.402;9.994;2022-10-17T04:28:11;8.70;99.90
13585;DHT22;6863;48.402;9.994;2022-10-17T04:30:37;8.60;99.90
13585;DHT22;6863;48.402;9.994;2022-10-17T04:33:02;8.50;99.90
13585;DHT22;6863;48.402;9.994;2022-10-17T04:35:28;8.60;99.90
13585;DHT22;6863;48.402;9.994;2022-10-17T04:37:54;8.50;99.90
13585;DHT22;6863;48.402;9.994;2022-10-17T04:40:19;8.40;99.90
13585;DHT22;6863;48.402;9.994;2022-10-17T04:42:45;8.40;99.90
13585;DHT22;6863;48.402;9.994;2022-10-17T04:45:11;8.40;99.90
13585;DHT22;6863;48.402;9.994;2022-10-17T04:47:37;8.40;99.90
13585;DHT22;6863;48.402;9.994;2022-10-17T04:50:03;8.30;99.90
13585;DHT22;6863;48.402;9.994;2022-10-17T04:52:29;8.20;99.90
13585;DHT22;6863;48.402;9.994;2022-10-17T04:54:56;8.20;99.90
13585;DHT22;6863;48.402;9.994;2022-10-17T04:57:21;8.20;99.90
13585;DHT22;6863;48.402;9.994;2022-10-17T04:59:48;8.20;99.90
13585;DHT22;6863;48.402;9.994;2022-10-17T05:02:13;8.10;99.90
13585;DHT22;6863;48.402;9.994;2022-10-17T05:04:39;8.10;99.90
13585;DHT22;6863;48.402;9.994;2022-10-17T05:07:04;8.00;99.90
13585;DHT22;6863;48.402;9.994;2022-10-17T05:09:30;8.00;99.90
13585;DHT22;6863;48.402;9.994;2022-10-17T05:11:55;8.00;99.90
13585;DHT22;6863;48.402;9.994;2022-10-17T05:14:21;8.10;99.90
13585;DHT22;6863;48.402;9.994;2022-10-17T05:16:46;8.10;99.90
13585;DHT22;6863;48.402;9.994;2022-10-17T05:21:43;8.20;99.90
13585;DHT22;6863;48.402;9.994;2022-10-17T05:24:12;8.20;99.90
13585;DHT22;6863;48.402;9.994;2022-10-17T05:26:37;8.30;99.90
13585;DHT22;6863;48.402;9.994;2022-10-17T05:29:03;8.20;99.90
13585;DHT22;6863;48.402;9.994;2022-10-17T05:31:30;8.20;99.90
13585;DHT22;6863;48.402;9.994;2022-10-17T05:33:59;8.20;99.90
13585;DHT22;6863;48.402;9.994;2022-10-17T05:36:24;8.30;99.90
13585;DHT22;6863;48.402;9.994;2022-10-17T05:38:50;8.30;99.90
13585;DHT22;6863;48.402;9.994;2022-10-17T05:41:17;8.20;99.90
13585;DHT22;6863;48.402;9.994;2022-10-17T05:43:42;8.20;99.90
13585;DHT22;6863;48.402;9.994;2022-10-17T05:46:08;8.20;99.90
13585;DHT22;6863;48.402;9.994;2022-10-17T05:48:34;8.20;99.90
13585;DHT22;6863;48.402;9.994;2022-10-17T05:51:02;8.20;99.90
13585;DHT22;6863;48.402;9.994;2022-10-17T05:53:32;8.30;99.90
13585;DHT22;6863;48.402;9.994;2022-10-17T05:56:00;8.20;99.90
13585;DHT22;6863;48.402;9.994;2022-10-17T05:58:26;8.30;99.90
13585;DHT22;6863;48.402;9.994;2022-10-17T06:01:00;8.30;99.90
13585;DHT22;6863;48.402;9.994;2022-10-17T06:03:25;8.40;99.90
13585;DHT22;6863;48.402;9.994;2022-10-17T06:05:53;8.40;99.90
13585;DHT22;6863;48.402;9.994;2022-10-17T06:08:19;8.50;99.90
13585;DHT22;6863;48.402;9.994;2022-10-17T06:10:49;8.50;99.90
13585;DHT22;6863;48.402;9.994;2022-10-17T06:13:15;8.60;99.90
13585;DHT22;6863;48.402;9.994;2022-10-17T06:15:41;8.70;99.90
13585;DHT22;6863;48.402;9.994;2022-10-17T06:18:07;8.80;99.90
13585;DHT22;6863;48.402;9.994;2022-10-17T06:20:32;8.80;99.90
13585;DHT22;6863;48.402;9.994;2022-10-17T06:22:58;8.90;99.90
13585;DHT22;6863;48.402;9.994;2022-10-17T06:25:24;9.00;99.90
13585;DHT22;6863;48.402;9.994;2022-10-17T06:27:49;9.10;99.90
13585;DHT22;6863;48.402;9.994;2022-10-17T06:30:15;9.20;99.90
13585;DHT22;6863;48.402;9.994;2022-10-17T06:32:40;9.40;99.90
13585;DHT22;6863;48.402;9.994;2022-10-17T06:35:06;9.60;99.90
13585;DHT22;6863;48.402;9.994;2022-10-17T06:37:33;9.80;99.90
13585;DHT22;6863;48.402;9.994;2022-10-17T06:39:59;10.00;99.90
13585;DHT22;6863;48.402;9.994;2022-10-17T06:42:25;10.20;99.90
13585;DHT22;6863;48.402;9.994;2022-10-17T06:44:50;10.30;99.90
13585;DHT22;6863;48.402;9.994;2022-10-17T06:47:16;10.50;99.90
13585;DHT22;6863;48.402;9.994;2022-10-17T06:49:41;10.50;99.90
13585;DHT22;6863;48.402;9.994;2022-10-17T06:52:07;10.80;99.90
13585;DHT22;6863;48.402;9.994;2022-10-17T06:54:34;11.10;99.90
13585;DHT22;6863;48.402;9.994;2022-10-17T06:56:59;11.30;99.90
13585;DHT22;6863;48.402;9.994;2022-10-17T06:59:25;11.30;99.90
13585;DHT22;6863;48.402;9.994;2022-10-17T07:01:50;11.40;99.90
13585;DHT22;6863;48.402;9.994;2022-10-17T07:04:16;11.70;99.90
13585;DHT22;6863;48.402;9.994;2022-10-17T07:06:42;11.80;99.90
13585;DHT22;6863;48.402;9.994;2022-10-17T07:09:07;11.90;99.90
13585;DHT22;6863;48.402;9.994;2022-10-17T07:11:34;12.20;99.90
13585;DHT22;6863;48.402;9.994;2022-10-17T07:14:00;12.50;99.90
13585;DHT22;6863;48.402;9.994;2022-10-17T07:16:26;12.90;99.90
13585;DHT22;6863;48.402;9.994;2022-10-17T07:18:52;13.30;99.90
13585;DHT22;6863;48.402;9.994;2022-10-17T07:21:19;13.90;99.90
13585;DHT22;6863;48.402;9.994;2022-10-17T07:23:45;14.50;99.90
13585;DHT22;6863;48.402;9.994;2022-10-17T07:26:14;14.70;99.90
13585;DHT22;6863;48.402;9.994;2022-10-17T07:28:42;15.00;99.90
13585;DHT22;6863;48.402;9.994;2022-10-17T07:31:11;15.60;99.90
13585;DHT22;6863;48.402;9.994;2022-10-17T07:33:37;16.20;99.90
13585;DHT22;6863;48.402;9.994;2022-10-17T07:36:04;17.10;99.90
13585;DHT22;6863;48.402;9.994;2022-10-17T07:38:30;17.60;98.70
13585;DHT22;6863;48.402;9.994;2022-10-17T07:41:00;18.10;97.80
13585;DHT22;6863;48.402;9.994;2022-10-17T07:43:26;17.90;97.00
13585;DHT22;6863;48.402;9.994;2022-10-17T07:45:52;18.60;96.40
13585;DHT22;6863;48.402;9.994;2022-10-17T07:48:18;18.60;95.90
13585;DHT22;6863;48.402;9.994;2022-10-17T07:50:44;19.20;95.10
13585;DHT22;6863;48.402;9.994;2022-10-17T07:53:10;20.20;93.50
13585;DHT22;6863;48.402;9.994;2022-10-17T07:55:36;20.70;92.30
13585;DHT22;6863;48.402;9.994;2022-10-17T07:58:02;20.70;91.20
13585;DHT22;6863;48.402;9.994;2022-10-17T08:00:28;21.20;91.00
13585;DHT22;6863;48.402;9.994;2022-10-17T08:02:54;22.70;87.20
13585;DHT22;6863;48.402;9.994;2022-10-17T08:05:19;23.90;80.40
13585;DHT22;6863;48.402;9.994;2022-10-17T08:07:45;24.70;75.50
13585;DHT22;6863;48.402;9.994;2022-10-17T08:10:12;24.90;73.10
13585;DHT22;6863;48.402;9.994;2022-10-17T08:12:38;25.80;68.90
13585;DHT22;6863;48.402;9.994;2022-10-17T08:15:05;26.70;65.00
13585;DHT22;6863;48.402;9.994;2022-10-17T08:17:30;27.00;62.80
13585;DHT22;6863;48.402;9.994;2022-10-17T08:19:56;27.20;60.20
13585;DHT22;6863;48.402;9.994;2022-10-17T08:22:22;27.60;58.40
13585;DHT22;6863;48.402;9.994;2022-10-17T08:24:47;27.60;59.10
13585;DHT22;6863;48.402;9.994;2022-10-17T08:27:13;27.60;58.10
13585;DHT22;6863;48.402;9.994;2022-10-17T08:29:39;28.00;57.50
13585;DHT22;6863;48.402;9.994;2022-10-17T08:32:05;28.40;55.90
13585;DHT22;6863;48.402;9.994;2022-10-17T08:34:31;27.90;56.70
13585;DHT22;6863;48.402;9.994;2022-10-17T08:36:57;28.20;55.70
13585;DHT22;6863;48.402;9.994;2022-10-17T08:39:23;27.90;56.30
13585;DHT22;6863;48.402;9.994;2022-10-17T08:44:54;27.30;58.10
13585;DHT22;6863;48.402;9.994;2022-10-17T08:50:02;27.70;57.40
13585;DHT22;6863;48.402;9.994;2022-10-17T08:55:39;28.50;55.50
13585;DHT22;6863;48.402;9.994;2022-10-17T08:58:18;28.60;55.80
13585;DHT22;6863;48.402;9.994;2022-10-17T09:06:20;28.40;56.70
13585;DHT22;6863;48.402;9.994;2022-10-17T09:08:55;29.10;54.60
13585;DHT22;6863;48.402;9.994;2022-10-17T09:17:07;29.10;52.90
13585;DHT22;6863;48.402;9.994;2022-10-17T09:19:41;28.80;53.80
13585;DHT22;6863;48.402;9.994;2022-10-17T09:22:23;29.00;52.70
13585;DHT22;6863;48.402;9.994;2022-10-17T09:24:58;29.50;52.00
13585;DHT22;6863;48.402;9.994;2022-10-17T09:33:32;29.60;52.30
13585;DHT22;6863;48.402;9.994;2022-10-17T09:35:59;29.70;52.00
13585;DHT22;6863;48.402;9.994;2022-10-17T09:38:43;28.90;53.00
13585;DHT22;6863;48.402;9.994;2022-10-17T09:41:20;28.70;54.00
13585;DHT22;6863;48.402;9.994;2022-10-17T09:43:46;28.90;54.50
13585;DHT22;6863;48.402;9.994;2022-10-17T09:46:28;29.20;53.30
13585;DHT22;6863;48.402;9.994;2022-10-17T09:49:08;28.40;54.70
13585;DHT22;6863;48.402;9.994;2022-10-17T09:51:36;28.70;55.20
13585;DHT22;6863;48.402;9.994;2022-10-17T09:54:06;29.10;54.00
13585;DHT22;6863;48.402;9.994;2022-10-17T09:56:55;29.60;53.00
13585;DHT22;6863;48.402;9.994;2022-10-17T09:59:40;29.30;54.20
13585;DHT22;6863;48.402;9.994;2022-10-17T10:02:18;28.50;54.30
13585;DHT22;6863;48.402;9.994;2022-10-17T10:05:05;27.40;57.00
13585;DHT22;6863;48.402;9.994;2022-10-17T10:07:40;28.10;55.60
13585;DHT22;6863;48.402;9.994;2022-10-17T10:10:21;28.20;56.00
13585;DHT22;6863;48.402;9.994;2022-10-17T10:13:22;29.30;54.40
13585;DHT22;6863;48.402;9.994;2022-10-17T10:15:48;30.00;52.60
13585;DHT22;6863;48.402;9.994;2022-10-17T10:21:30;29.10;54.00
13585;DHT22;6863;48.402;9.994;2022-10-17T10:26:45;30.50;51.70
13585;DHT22;6863;48.402;9.994;2022-10-17T10:29:30;30.20;51.90
13585;DHT22;6863;48.402;9.994;2022-10-17T10:32:15;30.50;52.00
13585;DHT22;6863;48.402;9.994;2022-10-17T10:34:49;32.30;49.00
13585;DHT22;6863;48.402;9.994;2022-10-17T10:37:24;30.10;51.10
13585;DHT22;6863;48.402;9.994;2022-10-17T10:40:02;29.10;54.20
13585;DHT22;6863;48.402;9.994;2022-10-17T10:42:31;30.30;52.30
13585;DHT22;6863;48.402;9.994;2022-10-17T10:45:21;30.50;51.30
13585;DHT22;6863;48.402;9.994;2022-10-17T10:48:09;30.00;52.80
13585;DHT22;6863;48.402;9.994;2022-10-17T10:50:48;28.70;55.10
13585;DHT22;6863;48.402;9.994;2022-10-17T10:55:53;28.30;56.60
13585;DHT22;6863;48.402;9.994;2022-10-17T10:58:41;29.90;55.00
13585;DHT22;6863;48.402;9.994;2022-10-17T11:03:52;33.00;48.70
13585;DHT22;6863;48.402;9.994;2022-10-17T11:06:28;34.50;45.60
13585;DHT22;6863;48.402;9.994;2022-10-17T11:09:15;35.00;43.90
13585;DHT22;6863;48.402;9.994;2022-10-17T11:11:46;34.70;44.40
13585;DHT22;6863;48.402;9.994;2022-10-17T11:14:20;34.40;44.10
13585;DHT22;6863;48.402;9.994;2022-10-17T11:17:14;34.20;44.50
13585;DHT22;6863;48.402;9.994;2022-10-17T11:20:03;36.00;41.90
13585;DHT22;6863;48.402;9.994;2022-10-17T11:22:35;36.10;41.10
13585;DHT22;6863;48.402;9.994;2022-10-17T11:25:04;35.90;41.30
13585;DHT22;6863;48.402;9.994;2022-10-17T11:27:30;36.30;40.70
13585;DHT22;6863;48.402;9.994;2022-10-17T11:29:57;35.80;41.10
13585;DHT22;6863;48.402;9.994;2022-10-17T11:32:45;34.50;42.10
13585;DHT22;6863;48.402;9.994;2022-10-17T11:35:34;33.40;43.50
13585;DHT22;6863;48.402;9.994;2022-10-17T11:38:20;33.30;44.60
13585;DHT22;6863;48.402;9.994;2022-10-17T11:40:50;34.40;42.60
13585;DHT22;6863;48.402;9.994;2022-10-17T11:43:33;34.00;43.80
13585;DHT22;6863;48.402;9.994;2022-10-17T11:51:35;35.50;41.00
13585;DHT22;6863;48.402;9.994;2022-10-17T11:54:39;35.70;40.70
13585;DHT22;6863;48.402;9.994;2022-10-17T12:02:26;32.90;42.90
13585;DHT22;6863;48.402;9.994;2022-10-17T12:08:02;34.60;41.20
13585;DHT22;6863;48.402;9.994;2022-10-17T12:18:48;33.90;42.00
13585;DHT22;6863;48.402;9.994;2022-10-17T12:21:14;35.00;40.30
13585;DHT22;6863;48.402;9.994;2022-10-17T12:23:40;33.40;40.90
13585;DHT22;6863;48.402;9.994;2022-10-17T12:26:24;33.10;42.00
13585;DHT22;6863;48.402;9.994;2022-10-17T12:28:50;34.50;40.40
13585;DHT22;6863;48.402;9.994;2022-10-17T12:34:03;35.60;37.70
13585;DHT22;6863;48.402;9.994;2022-10-17T13:02:46;32.60;41.20
13585;DHT22;6863;48.402;9.994;2022-10-17T13:05:28;33.10;40.50
13585;DHT22;6863;48.402;9.994;2022-10-17T13:07:55;32.80;41.00
13585;DHT22;6863;48.402;9.994;2022-10-17T13:10:26;32.60;41.30
13585;DHT22;6863;48.402;9.994;2022-10-17T13:13:02;32.80;40.60
13585;DHT22;6863;48.402;9.994;2022-10-17T13:15:29;32.80;41.00
13585;DHT22;6863;48.402;9.994;2022-10-17T13:17:56;33.40;40.00
13585;DHT22;6863;48.402;9.994;2022-10-17T13:20:24;32.30;41.00
13585;DHT22;6863;48.402;9.994;2022-10-17T13:22:53;32.30;41.50
13585;DHT22;6863;48.402;9.994;2022-10-17T13:25:20;33.00;40.70
13585;DHT22;6863;48.402;9.994;2022-10-17T13:27:47;33.70;39.30
13585;DHT22;6863;48.402;9.994;2022-10-17T13:30:28;33.70;39.30
13585;DHT22;6863;48.402;9.994;2022-10-17T13:32:55;34.70;37.80
13585;DHT22;6863;48.402;9.994;2022-10-17T13:37:49;36.40;35.60
13585;DHT22;6863;48.402;9.994;2022-10-17T13:40:18;36.60;35.60
13585;DHT22;6863;48.402;9.994;2022-10-17T13:42:44;37.30;33.90
13585;DHT22;6863;48.402;9.994;2022-10-17T13:45:27;37.00;34.30
13585;DHT22;6863;48.402;9.994;2022-10-17T13:47:54;36.80;34.90
13585;DHT22;6863;48.402;9.994;2022-10-17T13:50:34;37.10;34.30
13585;DHT22;6863;48.402;9.994;2022-10-17T13:53:29;36.20;35.00
13585;DHT22;6863;48.402;9.994;2022-10-17T13:56:14;35.60;36.10
13585;DHT22;6863;48.402;9.994;2022-10-17T13:58:49;36.00;35.70
13585;DHT22;6863;48.402;9.994;2022-10-17T14:01:16;35.80;36.10
13585;DHT22;6863;48.402;9.994;2022-10-17T14:03:43;35.40;36.40
13585;DHT22;6863;48.402;9.994;2022-10-17T14:06:21;36.20;35.40
13585;DHT22;6863;48.402;9.994;2022-10-17T14:09:02;36.10;35.70
13585;DHT22;6863;48.402;9.994;2022-10-17T14:11:39;36.30;35.30
13585;DHT22;6863;48.402;9.994;2022-10-17T14:14:15;36.50;35.60
13585;DHT22;6863;48.402;9.994;2022-10-17T14:16:42;36.80;34.50
13585;DHT22;6863;48.402;9.994;2022-10-17T14:19:34;37.50;33.30
13585;DHT22;6863;48.402;9.994;2022-10-17T14:22:23;37.80;32.90
13585;DHT22;6863;48.402;9.994;2022-10-17T14:24:50;36.60;33.70
13585;DHT22;6863;48.402;9.994;2022-10-17T14:27:53;35.80;35.60
13585;DHT22;6863;48.402;9.994;2022-10-17T14:30:32;34.90;37.80
13585;DHT22;6863;48.402;9.994;2022-10-17T14:33:01;34.50;37.80
13585;DHT22;6863;48.402;9.994;2022-10-17T14:35:28;34.80;37.30
13585;DHT22;6863;48.402;9.994;2022-10-17T14:38:00;34.90;37.20
13585;DHT22;6863;48.402;9.994;2022-10-17T14:40:27;34.50;37.70
13585;DHT22;6863;48.402;9.994;2022-10-17T14:42:55;33.70;39.10
13585;DHT22;6863;48.402;9.994;2022-10-17T14:45:29;33.00;40.40
13585;DHT22;6863;48.402;9.994;2022-10-17T14:48:01;32.60;41.40
13585;DHT22;6863;48.402;9.994;2022-10-17T14:50:29;32.80;41.40
13585;DHT22;6863;48.402;9.994;2022-10-17T14:55:27;33.40;40.40
13585;DHT22;6863;48.402;9.994;2022-10-17T14:57:52;33.00;40.90
13585;DHT22;6863;48.402;9.994;2022-10-17T15:00:19;32.20;42.00
13585;DHT22;6863;48.402;9.994;2022-10-17T15:02:46;31.30;43.80
13585;DHT22;6863;48.402;9.994;2022-10-17T15:05:13;30.90;44.30
13585;DHT22;6863;48.402;9.994;2022-10-17T15:07:38;30.70;45.10
13585;DHT22;6863;48.402;9.994;2022-10-17T15:10:04;31.00;44.70
13585;DHT22;6863;48.402;9.994;2022-10-17T15:12:30;31.20;44.30
13585;DHT22;6863;48.402;9.994;2022-10-17T15:14:57;31.40;44.10
13585;DHT22;6863;48.402;9.994;2022-10-17T15:17:29;31.20;44.30
13585;DHT22;6863;48.402;9.994;2022-10-17T15:19:56;30.70;45.20
13585;DHT22;6863;48.402;9.994;2022-10-17T15:22:22;30.40;45.90
13585;DHT22;6863;48.402;9.994;2022-10-17T15:24:48;30.10;46.40
13585;DHT22;6863;48.402;9.994;2022-10-17T15:27:17;29.90;46.60
13585;DHT22;6863;48.402;9.994;2022-10-17T15:29:44;29.80;47.30
13585;DHT22;6863;48.402;9.994;2022-10-17T15:32:09;29.70;47.70
13585;DHT22;6863;48.402;9.994;2022-10-17T15:34:35;29.30;48.50
13585;DHT22;6863;48.402;9.994;2022-10-17T15:37:03;29.00;49.10
13585;DHT22;6863;48.402;9.994;2022-10-17T15:39:28;28.80;49.70
13585;DHT22;6863;48.402;9.994;2022-10-17T15:41:54;28.60;50.00
13585;DHT22;6863;48.402;9.994;2022-10-17T15:44:20;28.40;50.50
13585;DHT22;6863;48.402;9.994;2022-10-17T15:46:45;28.10;51.00
13585;DHT22;6863;48.402;9.994;2022-10-17T15:49:12;27.70;51.90
13585;DHT22;6863;48.402;9.994;2022-10-17T15:51:39;27.30;52.70
13585;DHT22;6863;48.402;9.994;2022-10-17T15:54:05;26.90;53.40
13585;DHT22;6863;48.402;9.994;2022-10-17T15:56:41;26.40;54.70
13585;DHT22;6863;48.402;9.994;2022-10-17T15:59:13;25.90;55.80
13585;DHT22;6863;48.402;9.994;2022-10-17T16:04:49;25.30;58.90
13585;DHT22;6863;48.402;9.994;2022-10-17T16:07:16;24.90;59.90
13585;DHT22;6863;48.402;9.994;2022-10-17T16:09:42;24.50;61.20
13585;DHT22;6863;48.402;9.994;2022-10-17T16:12:16;24.20;63.30
13585;DHT22;6863;48.402;9.994;2022-10-17T16:14:42;23.80;64.60
13585;DHT22;6863;48.402;9.994;2022-10-17T16:17:12;23.50;66.10
13585;DHT22;6863;48.402;9.994;2022-10-17T16:19:41;23.20;67.60
13585;DHT22;6863;48.402;9.994;2022-10-17T16:22:16;22.80;69.60
13585;DHT22;6863;48.402;9.994;2022-10-17T16:24:43;22.50;71.50
13585;DHT22;6863;48.402;9.994;2022-10-17T16:27:09;22.10;73.60
13585;DHT22;6863;48.402;9.994;2022-10-17T16:29:34;21.90;75.60
13585;DHT22;6863;48.402;9.994;2022-10-17T16:32:00;21.60;77.70
13585;DHT22;6863;48.402;9.994;2022-10-17T16:34:25;21.30;79.70
13585;DHT22;6863;48.402;9.994;2022-10-17T16:36:51;21.10;81.70
13585;DHT22;6863;48.402;9.994;2022-10-17T16:39:16;20.90;84.60
13585;DHT22;6863;48.402;9.994;2022-10-17T16:41:42;20.60;87.60
13585;DHT22;6863;48.402;9.994;2022-10-17T16:44:10;20.50;90.20
13585;DHT22;6863;48.402;9.994;2022-10-17T16:46:39;20.20;92.40
13585;DHT22;6863;48.402;9.994;2022-10-17T16:49:05;20.10;93.70
13585;DHT22;6863;48.402;9.994;2022-10-17T16:51:31;19.90;94.50
13585;DHT22;6863;48.402;9.994;2022-10-17T16:54:00;19.70;95.70
13585;DHT22;6863;48.402;9.994;2022-10-17T16:56:27;19.50;96.70
13585;DHT22;6863;48.402;9.994;2022-10-17T16:58:57;19.40;97.50
13585;DHT22;6863;48.402;9.994;2022-10-17T17:01:27;19.20;98.70
13585;DHT22;6863;48.402;9.994;2022-10-17T17:03:55;19.10;99.80
13585;DHT22;6863;48.402;9.994;2022-10-17T17:06:27;18.90;99.90
13585;DHT22;6863;48.402;9.994;2022-10-17T17:08:54;18.80;99.90
13585;DHT22;6863;48.402;9.994;2022-10-17T17:11:23;18.70;99.90
13585;DHT22;6863;48.402;9.994;2022-10-17T17:13:49;18.50;99.90
13585;DHT22;6863;48.402;9.994;2022-10-17T17:16:19;18.40;99.90
13585;DHT22;6863;48.402;9.994;2022-10-17T17:18:52;18.20;99.90
13585;DHT22;6863;48.402;9.994;2022-10-17T17:21:30;18.10;99.90
13585;DHT22;6863;48.402;9.994;2022-10-17T17:23:58;18.00;99.90
13585;DHT22;6863;48.402;9.994;2022-10-17T17:26:26;17.90;99.90
13585;DHT22;6863;48.402;9.994;2022-10-17T17:28:51;17.70;99.90
13585;DHT22;6863;48.402;9.994;2022-10-17T17:31:23;17.60;99.90
13585;DHT22;6863;48.402;9.994;2022-10-17T17:33:50;17.50;99.90
13585;DHT22;6863;48.402;9.994;2022-10-17T17:36:18;17.40;99.90
13585;DHT22;6863;48.402;9.994;2022-10-17T17:38:45;17.30;99.90
13585;DHT22;6863;48.402;9.994;2022-10-17T17:41:13;17.20;99.90
13585;DHT22;6863;48.402;9.994;2022-10-17T17:43:39;17.10;99.90
13585;DHT22;6863;48.402;9.994;2022-10-17T17:46:05;17.00;99.90
13585;DHT22;6863;48.402;9.994;2022-10-17T17:48:31;16.90;99.90
13585;DHT22;6863;48.402;9.994;2022-10-17T17:51:02;16.80;99.90
13585;DHT22;6863;48.402;9.994;2022-10-17T17:53:28;16.70;99.90
13585;DHT22;6863;48.402;9.994;2022-10-17T17:56:07;16.60;99.90
13585;DHT22;6863;48.402;9.994;2022-10-17T17:58:34;16.50;99.90
13585;DHT22;6863;48.402;9.994;2022-10-17T18:01:01;16.50;99.90
13585;DHT22;6863;48.402;9.994;2022-10-17T18:03:27;16.40;99.90
13585;DHT22;6863;48.402;9.994;2022-10-17T18:05:53;16.30;99.90
13585;DHT22;6863;48.402;9.994;2022-10-17T18:08:18;16.20;99.90
13585;DHT22;6863;48.402;9.994;2022-10-17T18:10:50;16.20;99.90